Eurika — LYRZ — position and weather

sailwx.info

Track history (hours):
 
Tides and Currents Weather Stations Pressure Air Temp Water Temp Dewpoint Dewpoint Depression Visibility Wind Speed Wind Dir Waves Ship Positions

Eurika

Last reported at 2016-Feb-04 14:33 UTC. Time now 2016-Feb-08 23:02 UTC.
Position N 43°03' E 004°29'.

Length 79 m; draft 2.9 m.

Type: Cargo ship. MMSI: 277335000.

Date/timePositionNaut miles runAvg speedWind from/ knotsBaromVisibWave heightAir tempDewpointWater temp
2016-Feb-04 14:33N 43°03' E 004°29'6 6.2
2016-Feb-04 13:33N 43°06' E 004°37'6 6.3
2016-Feb-04 12:33N 43°09' E 004°44'6 6.5
2016-Feb-04 11:33N 43°14' E 004°51'7 6.8
2016-Feb-04 10:33N 43°19' E 004°57'7 6.6
2016-Feb-04 09:33N 43°23' E 004°50'1 1.2
2016-Feb-04 08:33N 43°23' E 004°48'0 0.0
2016-Feb-04 07:33N 43°23' E 004°48'0 0.0
2016-Feb-04 06:33N 43°23' E 004°48'2 0.1
2016-Feb-02 17:33N 43°24' E 004°46'12 9.4
2016-Feb-02 16:15N 43°35' E 004°40'  
2016-Jan-29 22:17N 43°35' E 004°40'5 7.2
2016-Jan-29 21:33N 43°30' E 004°44'7 7.0
2016-Jan-29 20:33N 43°24' E 004°47'2 2.5
2016-Jan-29 19:33N 43°23' E 004°50'6 6.2
2016-Jan-29 18:33N 43°22' E 004°58'6 6.4
2016-Jan-29 17:33N 43°16' E 005°03'8 6.3
2016-Jan-29 16:21N 43°10' E 005°09'  
2016-Jan-25 17:07N 43°11' E 005°07'4 7.1
2016-Jan-25 16:33N 43°15' E 005°04'8 7.4
2016-Jan-25 15:27N 43°21' E 004°57'  
Track history (hours):
 
Tides and Currents Weather Stations Pressure Air Temp Water Temp Dewpoint Dewpoint Depression Visibility Wind Speed Wind Dir Waves Ship Positions

Eurika

Last reported at 2016-Feb-04 14:33 UTC. Time now 2016-Feb-08 23:02 UTC.
Position N 43°03' E 004°29'.

Length 79 m; draft 2.9 m.

Type: Cargo ship. MMSI: 277335000.

Date/timePositionNaut miles runAvg speedWind from/ knotsBaromVisibWave heightAir tempDewpointWater temp
2016-Feb-04 14:33N 43°03' E 004°29'6 6.2
2016-Feb-04 13:33N 43°06' E 004°37'6 6.3
2016-Feb-04 12:33N 43°09' E 004°44'6 6.5
2016-Feb-04 11:33N 43°14' E 004°51'7 6.8
2016-Feb-04 10:33N 43°19' E 004°57'7 6.6
2016-Feb-04 09:33N 43°23' E 004°50'1 1.2
2016-Feb-04 08:33N 43°23' E 004°48'0 0.0
2016-Feb-04 07:33N 43°23' E 004°48'0 0.0
2016-Feb-04 06:33N 43°23' E 004°48'2 0.1
2016-Feb-02 17:33N 43°24' E 004°46'12 9.4
2016-Feb-02 16:15N 43°35' E 004°40'  
2016-Jan-29 22:17N 43°35' E 004°40'5 7.2
2016-Jan-29 21:33N 43°30' E 004°44'7 7.0
2016-Jan-29 20:33N 43°24' E 004°47'2 2.5
2016-Jan-29 19:33N 43°23' E 004°50'6 6.2
2016-Jan-29 18:33N 43°22' E 004°58'6 6.4
2016-Jan-29 17:33N 43°16' E 005°03'8 6.3
2016-Jan-29 16:21N 43°10' E 005°09'  
2016-Jan-25 17:07N 43°11' E 005°07'4 7.1
2016-Jan-25 16:33N 43°15' E 005°04'8 7.4
2016-Jan-25 15:27N 43°21' E 004°57'  

Dump ship's entire track history